Time;durP1;ratioP1;P1;durP2;ratioP2;P2;SDS_P1;SDS_P2;PMS_P1;PMS_P2;Temp;Humidity;BMP_temperature;BMP_pressure;BME280_temperature;BME280_humidity;BME280_pressure;Samples;Min_cycle;Max_cycle;Signal;HPM_P1;HPM_P2
2023/11/20 00:01:22;;;;;;;17.20;5.90;;;;;;;5.97;100.00;99365.08;131186;1298;22594;-83
2023/11/20 00:04:23;;;;;;;18.40;5.50;;;;;;;6.00;100.00;99367.61;131026;1298;23515;-82
2023/11/20 00:07:23;;;;;;;18.60;6.40;;;;;;;6.02;100.00;99365.23;131390;1298;22635;-82
2023/11/20 00:10:24;;;;;;;13.30;5.90;;;;;;;6.06;100.00;99368.23;131333;1298;25386;-81
2023/11/20 00:13:24;;;;;;;19.20;6.00;;;;;;;6.08;100.00;99371.86;131417;1298;24844;-82
2023/11/20 00:16:25;;;;;;;18.40;5.90;;;;;;;6.11;100.00;99369.13;131184;1299;22595;-84
2023/11/20 00:19:25;;;;;;;26.70;6.80;;;;;;;6.15;100.00;99368.91;131152;1297;24260;-81
2023/11/20 00:22:26;;;;;;;23.70;7.10;;;;;;;6.20;100.00;99368.58;131165;1294;22603;-82
2023/11/20 00:25:26;;;;;;;12.80;5.40;;;;;;;6.24;100.00;99369.53;131258;1298;22630;-81
2023/11/20 00:28:27;;;;;;;17.10;4.70;;;;;;;6.29;100.00;99367.93;131276;1289;25089;-81
2023/11/20 00:31:28;;;;;;;19.00;5.10;;;;;;;6.34;100.00;99367.00;131262;1298;24467;-83
2023/11/20 00:34:28;;;;;;;23.00;5.30;;;;;;;6.37;100.00;99365.98;131167;1295;22667;-81
2023/11/20 00:37:29;;;;;;;19.70;5.70;;;;;;;6.41;100.00;99371.31;131076;1289;23931;-81
2023/11/20 00:40:29;;;;;;;17.60;5.10;;;;;;;6.46;100.00;99366.27;131155;1295;22737;-81
2023/11/20 00:43:31;;;;;;;14.10;4.90;;;;;;;6.49;100.00;99369.92;131142;1301;22638;-82
2023/11/20 00:46:35;;;;;;;16.00;5.30;;;;;;;6.53;100.00;99368.27;131256;1299;25803;-82
2023/11/20 00:49:35;;;;;;;16.40;5.00;;;;;;;6.60;100.00;99370.42;131546;1298;22704;-83
2023/11/20 00:52:36;;;;;;;19.70;5.00;;;;;;;6.63;100.00;99374.98;131273;1298;22678;-81
2023/11/20 00:55:36;;;;;;;16.80;4.70;;;;;;;6.66;100.00;99372.80;131554;1301;24328;-81
2023/11/20 00:58:38;;;;;;;17.10;4.70;;;;;;;6.69;100.00;99371.55;131469;1292;24782;-82
2023/11/20 01:01:38;;;;;;;13.60;4.10;;;;;;;6.71;100.00;99368.46;131448;1298;23311;-82
2023/11/20 01:04:39;;;;;;;11.90;4.10;;;;;;;6.73;100.00;99367.21;131045;1298;22560;-81
2023/11/20 01:07:39;;;;;;;15.80;4.50;;;;;;;6.79;100.00;99371.84;131305;1298;23185;-79
2023/11/20 01:10:40;;;;;;;15.60;5.20;;;;;;;6.80;100.00;99370.95;131202;1304;26332;-82
2023/11/20 01:13:40;;;;;;;14.00;4.50;;;;;;;6.81;100.00;99367.63;131527;1297;25511;-81
2023/11/20 01:16:41;;;;;;;12.90;4.40;;;;;;;6.83;100.00;99369.98;131507;1295;22559;-81
2023/11/20 01:19:41;;;;;;;18.60;6.40;;;;;;;6.85;100.00;99365.99;131296;1295;23078;-82
2023/11/20 01:22:42;;;;;;;13.90;4.10;;;;;;;6.87;100.00;99361.05;131103;1298;22667;-83
2023/11/20 01:25:43;;;;;;;13.20;3.70;;;;;;;6.89;100.00;99362.41;131181;1293;22566;-81
2023/11/20 01:28:44;;;;;;;16.80;4.40;;;;;;;6.91;100.00;99366.41;131152;1302;24249;-82
2023/11/20 01:31:44;;;;;;;15.70;4.10;;;;;;;6.93;100.00;99362.52;131418;1289;22480;-83
2023/11/20 01:34:46;;;;;;;11.20;3.50;;;;;;;6.95;100.00;99362.36;131242;1302;22598;-80
2023/11/20 01:37:47;;;;;;;14.60;3.80;;;;;;;6.95;100.00;99366.19;131070;1301;22621;-82
2023/11/20 01:40:54;;;;;;;12.90;3.60;;;;;;;6.95;100.00;99361.23;131064;1301;23071;-83
2023/11/20 01:43:55;;;;;;;14.00;4.10;;;;;;;6.95;100.00;99362.48;131012;1298;22691;-81
2023/11/20 01:46:57;;;;;;;16.00;3.90;;;;;;;6.95;100.00;99360.20;131210;1293;23419;-81
2023/11/20 01:49:58;;;;;;;15.10;4.40;;;;;;;6.95;100.00;99364.47;131548;1298;24448;-80
2023/11/20 01:52:59;;;;;;;11.70;4.30;;;;;;;6.94;100.00;99363.64;131429;1301;22557;-81
2023/11/20 01:56:00;;;;;;;15.90;4.60;;;;;;;6.94;100.00;99358.20;131522;1299;22588;-83
2023/11/20 01:59:06;;;;;;;16.00;4.30;;;;;;;6.94;100.00;99355.23;131434;1295;25509;-81
2023/11/20 02:02:07;;;;;;;21.10;4.90;;;;;;;6.94;100.00;99354.71;131087;1300;23940;-82
2023/11/20 02:05:09;;;;;;;17.60;4.30;;;;;;;6.92;100.00;99352.07;131407;1299;22556;-84
2023/11/20 02:08:09;;;;;;;18.50;5.50;;;;;;;6.91;100.00;99348.54;131397;1286;24302;-82
2023/11/20 02:11:10;;;;;;;17.00;4.10;;;;;;;6.89;100.00;99350.29;131288;1298;22565;-81
2023/11/20 02:14:12;;;;;;;10.20;4.10;;;;;;;6.88;100.00;99351.70;131231;1295;146612;-80
2023/11/20 02:17:13;;;;;;;14.40;5.60;;;;;;;6.87;100.00;99353.70;131605;1299;23169;-82
2023/11/20 02:20:13;;;;;;;14.30;5.60;;;;;;;6.87;100.00;99346.51;131343;1303;22684;-81
2023/11/20 02:23:14;;;;;;;13.70;4.80;;;;;;;6.86;100.00;99345.20;131603;1295;22672;-81
2023/11/20 02:26:32;;;;;;;13.50;3.90;;;;;;;6.87;100.00;99344.43;131096;1295;23252;-80
2023/11/20 02:29:33;;;;;;;14.00;4.50;;;;;;;6.86;100.00;99348.73;131483;1288;22890;-82
2023/11/20 02:32:33;;;;;;;12.60;4.30;;;;;;;6.84;100.00;99343.63;131586;1298;22598;-82
2023/11/20 02:35:34;;;;;;;16.50;4.60;;;;;;;6.83;100.00;99345.09;130978;1294;22666;-80
2023/11/20 02:38:36;;;;;;;17.10;4.40;;;;;;;6.81;100.00;99340.23;131506;1290;22593;-82
2023/11/20 02:41:39;;;;;;;15.00;4.90;;;;;;;6.81;100.00;99334.86;131325;1298;25265;-84
2023/11/20 02:44:40;;;;;;;17.80;4.50;;;;;;;6.79;100.00;99331.70;131399;1295;24386;-81
2023/11/20 02:47:41;;;;;;;14.70;5.20;;;;;;;6.76;100.00;99330.96;131235;1299;22609;-81
2023/11/20 02:50:41;;;;;;;16.10;5.00;;;;;;;6.74;100.00;99330.11;131157;1293;22616;-82
2023/11/20 02:53:41;;;;;;;12.40;5.00;;;;;;;6.72;100.00;99328.85;131335;1295;22592;-81
2023/11/20 02:56:42;;;;;;;12.10;4.50;;;;;;;6.71;100.00;99334.42;131304;1298;22557;-83
2023/11/20 02:59:43;;;;;;;18.60;5.20;;;;;;;6.69;100.00;99329.66;131469;1293;27429;-80
2023/11/20 03:02:44;;;;;;;16.80;5.60;;;;;;;6.68;100.00;99326.17;131490;1295;22591;-82
2023/11/20 03:05:45;;;;;;;19.00;5.60;;;;;;;6.66;100.00;99327.71;131402;1296;22572;-83
2023/11/20 03:08:46;;;;;;;17.00;5.60;;;;;;;6.65;100.00;99330.80;131455;1288;22613;-83
2023/11/20 03:11:46;;;;;;;;;;;;;;;6.65;100.00;99333.52;131099;1297;24241;-83
2023/11/20 03:14:47;;;;;;;15.70;5.40;;;;;;;6.63;100.00;99326.85;131460;1299;22562;-82
2023/11/20 03:17:49;;;;;;;12.40;5.10;;;;;;;6.63;100.00;99332.68;131428;1301;22802;-83
2023/11/20 03:20:49;;;;;;;13.80;4.70;;;;;;;6.62;100.00;99329.19;131419;1299;22594;-82
2023/11/20 03:23:50;;;;;;;16.70;5.10;;;;;;;6.62;100.00;99326.26;131219;1293;22556;-81
2023/11/20 03:26:50;;;;;;;18.30;5.70;;;;;;;6.62;100.00;99327.64;131050;1292;22616;-82
2023/11/20 03:29:51;;;;;;;12.60;5.60;;;;;;;6.62;100.00;99330.64;131293;1289;22698;-81
2023/11/20 03:32:51;;;;;;;13.70;4.80;;;;;;;6.62;100.00;99323.98;131205;1299;24405;-82
2023/11/20 03:35:53;;;;;;;10.20;5.10;;;;;;;6.62;100.00;99319.08;131210;1289;22618;-83
2023/11/20 03:38:53;;;;;;;8.80;4.90;;;;;;;6.62;100.00;99317.10;131145;1299;22562;-83
2023/11/20 03:41:54;;;;;;;12.50;5.40;;;;;;;6.63;100.00;99317.36;131070;1299;23793;-83
2023/11/20 03:44:54;;;;;;;11.10;5.10;;;;;;;6.63;100.00;99312.41;131159;1298;23072;-83
2023/11/20 03:47:55;;;;;;;11.10;5.60;;;;;;;6.64;100.00;99314.98;131079;1291;22658;-82
2023/11/20 03:50:55;;;;;;;18.90;6.80;;;;;;;6.63;100.00;99310.27;131302;1298;25377;-82
2023/11/20 03:53:56;;;;;;;13.50;5.60;;;;;;;6.64;100.00;99312.66;131353;1290;24980;-83
2023/11/20 03:56:56;;;;;;;13.00;5.90;;;;;;;6.64;100.00;99311.92;131547;1293;25345;-82
2023/11/20 03:59:57;;;;;;;13.70;5.60;;;;;;;6.65;100.00;99309.45;131180;1301;23736;-82
2023/11/20 04:02:59;;;;;;;14.20;5.90;;;;;;;6.64;100.00;99308.08;131211;1295;22598;-85
2023/11/20 04:05:59;;;;;;;14.30;6.10;;;;;;;6.65;100.00;99303.98;131443;1293;25519;-82
2023/11/20 04:09:00;;;;;;;15.80;6.40;;;;;;;6.64;100.00;99301.21;131207;1299;22671;-83
2023/11/20 04:12:01;;;;;;;12.10;6.40;;;;;;;6.64;100.00;99292.94;131426;1295;23908;-81
2023/11/20 04:15:02;;;;;;;11.90;5.90;;;;;;;6.64;100.00;99291.55;131342;1295;22522;-83
2023/11/20 04:18:02;;;;;;;14.80;5.90;;;;;;;6.64;100.00;99286.31;131802;1285;22591;-82
2023/11/20 04:21:03;;;;;;;10.50;5.50;;;;;;;6.64;100.00;99284.33;131409;1298;22683;-82
2023/11/20 04:24:04;;;;;;;;;;;;;;;6.64;100.00;99282.39;131364;1289;22556;-83
2023/11/20 04:27:05;;;;;;;9.70;5.30;;;;;;;6.64;100.00;99282.79;131386;1298;22582;-82
2023/11/20 04:30:08;;;;;;;11.60;6.10;;;;;;;6.64;100.00;99275.64;131330;1291;23326;-82
2023/11/20 04:33:08;;;;;;;12.90;6.20;;;;;;;6.64;100.00;99277.70;131290;1295;23978;-82
2023/11/20 04:36:12;;;;;;;11.80;6.30;;;;;;;6.64;100.00;99276.33;131497;1291;22555;-84
2023/11/20 04:39:13;;;;;;;16.60;7.10;;;;;;;6.64;100.00;99277.05;131339;1295;25779;-81
2023/11/20 04:42:13;;;;;;;11.70;6.50;;;;;;;6.63;100.00;99278.91;131499;1285;22582;-84
2023/11/20 04:45:14;;;;;;;10.40;6.70;;;;;;;6.63;100.00;99278.38;131390;1298;25590;-83
2023/11/20 04:48:16;;;;;;;12.90;7.70;;;;;;;6.62;100.00;99273.99;131436;1294;22601;-81
2023/11/20 04:51:20;;;;;;;13.10;6.70;;;;;;;6.63;100.00;99276.80;131482;1289;25326;-81
2023/11/20 04:54:21;;;;;;;11.50;6.30;;;;;;;6.62;100.00;99276.88;131409;1292;22585;-80
2023/11/20 04:57:21;;;;;;;10.60;6.40;;;;;;;6.62;100.00;99277.95;131478;1298;25316;-80
2023/11/20 05:00:22;;;;;;;10.90;6.30;;;;;;;6.61;100.00;99277.65;131170;1295;24343;-82
2023/11/20 05:03:22;;;;;;;13.80;6.60;;;;;;;6.60;100.00;99277.42;131388;1295;23033;-83
2023/11/20 05:06:23;;;;;;;9.90;6.00;;;;;;;6.60;100.00;99276.42;131415;1288;27474;-82
2023/11/20 05:09:23;;;;;;;13.50;6.20;;;;;;;6.59;100.00;99276.83;131503;1289;22590;-82
2023/11/20 05:12:24;;;;;;;12.30;6.50;;;;;;;6.59;100.00;99275.29;131286;1293;22578;-81
2023/11/20 05:15:24;;;;;;;15.20;6.70;;;;;;;6.58;100.00;99274.31;130911;1289;24737;-81
2023/11/20 05:18:25;;;;;;;14.50;7.90;;;;;;;6.57;100.00;99274.13;131280;1288;22600;-84
2023/11/20 05:21:25;;;;;;;14.80;8.10;;;;;;;6.55;100.00;99270.02;131159;1288;22629;-81
2023/11/20 05:24:26;;;;;;;13.20;7.10;;;;;;;6.55;100.00;99268.91;131167;1298;24351;-81
2023/11/20 05:27:27;;;;;;;11.30;7.40;;;;;;;6.54;100.00;99269.65;131089;1289;22605;-81
2023/11/20 05:30:27;;;;;;;;;;;;;;;6.53;100.00;99269.39;131318;1289;24304;-81
2023/11/20 05:33:28;;;;;;;14.40;7.00;;;;;;;6.52;100.00;99271.55;131340;1298;23340;-81
2023/11/20 05:36:28;;;;;;;14.60;8.30;;;;;;;6.53;100.00;99265.56;131409;1298;22566;-82
2023/11/20 05:39:29;;;;;;;13.40;7.80;;;;;;;6.52;100.00;99267.70;131377;1304;23472;-81
2023/11/20 05:42:29;;;;;;;13.30;8.40;;;;;;;6.53;100.00;99266.81;131141;1292;22566;-83
2023/11/20 05:45:30;;;;;;;11.90;7.70;;;;;;;6.52;100.00;99262.43;131282;1289;24287;-81
2023/11/20 05:48:30;;;;;;;11.60;7.30;;;;;;;6.52;100.00;99263.48;131473;1298;22623;-80
2023/11/20 05:51:31;;;;;;;15.90;7.80;;;;;;;6.53;100.00;99261.64;131639;1298;22570;-80
2023/11/20 05:54:32;;;;;;;11.80;7.10;;;;;;;6.54;100.00;99259.80;131628;1291;22576;-81
2023/11/20 05:57:33;;;;;;;12.50;6.60;;;;;;;6.54;100.00;99259.84;132065;1292;26798;-83
2023/11/20 06:00:34;;;;;;;17.40;7.20;;;;;;;6.54;100.00;99265.98;131125;1294;22821;-82
2023/11/20 06:03:34;;;;;;;15.20;7.20;;;;;;;6.52;100.00;99268.92;131266;1298;22601;-82
2023/11/20 06:06:36;;;;;;;11.50;7.50;;;;;;;6.52;100.00;99268.07;131317;1297;25392;-83
2023/11/20 06:09:36;;;;;;;12.60;7.60;;;;;;;6.51;100.00;99268.53;131225;1299;22611;-80
2023/11/20 06:12:37;;;;;;;11.60;6.90;;;;;;;6.50;100.00;99262.86;131591;1299;22553;-80
2023/11/20 06:15:38;;;;;;;12.20;6.30;;;;;;;6.50;100.00;99263.39;131665;1289;25279;-82
2023/11/20 06:18:38;;;;;;;10.30;5.60;;;;;;;6.50;100.00;99264.45;131638;1295;23012;-80
2023/11/20 06:21:58;;;;;;;9.70;5.70;;;;;;;6.51;100.00;99267.52;131887;1295;23489;-80
2023/11/20 06:24:59;;;;;;;12.40;6.20;;;;;;;6.52;100.00;99273.17;131695;1298;24336;-80
2023/11/20 06:27:59;;;;;;;11.60;6.10;;;;;;;6.54;100.00;99278.59;131561;1296;22656;-80
2023/11/20 06:31:00;;;;;;;16.60;6.70;;;;;;;6.56;100.00;99282.64;131499;1291;22789;-81
2023/11/20 06:34:00;;;;;;;8.40;5.80;;;;;;;6.57;100.00;99282.98;131409;1298;24913;-83
2023/11/20 06:37:01;;;;;;;7.80;5.10;;;;;;;6.59;100.00;99284.92;131542;1297;22772;-81
2023/11/20 06:40:02;;;;;;;10.80;5.80;;;;;;;6.61;100.00;99288.27;131622;1297;23390;-81
2023/11/20 06:43:04;;;;;;;8.70;5.50;;;;;;;6.63;100.00;99292.02;131293;1288;23233;-80
2023/11/20 06:46:05;;;;;;;12.50;6.20;;;;;;;6.67;100.00;99291.67;131332;1298;22594;-80
2023/11/20 06:49:05;;;;;;;11.20;5.70;;;;;;;6.69;100.00;99292.52;131367;1298;24432;-80
2023/11/20 06:52:06;;;;;;;11.30;6.70;;;;;;;6.70;100.00;99296.35;131510;1292;22703;-82
2023/11/20 06:55:06;;;;;;;9.70;5.60;;;;;;;6.71;100.00;99298.16;131383;1298;24235;-81
2023/11/20 06:58:07;;;;;;;13.50;6.30;;;;;;;6.72;100.00;99304.73;131416;1288;22744;-82
2023/11/20 07:01:08;;;;;;;11.50;6.00;;;;;;;6.73;100.00;99305.39;131898;1285;22598;-79
2023/11/20 07:04:08;;;;;;;14.10;6.50;;;;;;;6.74;100.00;99303.88;131470;1283;25222;-81
2023/11/20 07:07:09;;;;;;;10.10;6.80;;;;;;;6.75;100.00;99302.89;131388;1290;22642;-81
2023/11/20 07:10:11;;;;;;;11.60;7.00;;;;;;;6.76;100.00;99309.31;131522;1288;24263;-80
2023/11/20 07:13:12;;;;;;;13.60;9.00;;;;;;;6.77;100.00;99303.90;131513;1290;22516;-81
2023/11/20 07:16:14;;;;;;;14.70;9.60;;;;;;;6.79;100.00;99301.08;131410;1297;22685;-82
2023/11/20 07:19:15;;;;;;;10.90;6.40;;;;;;;6.81;100.00;99300.19;131375;1290;25329;-82
2023/11/20 07:22:16;;;;;;;10.10;6.10;;;;;;;6.81;100.00;99302.30;131531;1298;22578;-80
2023/11/20 07:25:16;;;;;;;11.70;5.80;;;;;;;6.81;100.00;99301.25;131334;1298;24281;-81
2023/11/20 07:28:17;;;;;;;8.20;6.80;;;;;;;6.81;100.00;99302.27;131281;1293;22579;-82
2023/11/20 07:31:25;;;;;;;8.30;6.60;;;;;;;6.82;100.00;99297.98;131330;1294;25380;-82
2023/11/20 07:34:25;;;;;;;10.90;7.10;;;;;;;6.81;100.00;99299.80;131330;1289;23156;-82
2023/11/20 07:37:26;;;;;;;10.40;7.90;;;;;;;6.82;100.00;99300.92;131383;1289;25658;-82
2023/11/20 07:40:26;;;;;;;15.00;9.90;;;;;;;6.83;100.00;99296.67;131105;1291;22562;-81
2023/11/20 07:43:28;;;;;;;14.20;9.70;;;;;;;6.84;100.00;99303.56;131427;1288;22652;-83
2023/11/20 07:46:29;;;;;;;14.70;9.50;;;;;;;6.85;100.00;99300.60;131454;1282;22803;-81
2023/11/20 07:49:31;;;;;;;11.20;8.60;;;;;;;6.87;100.00;99300.40;131152;1289;22606;-81
2023/11/20 07:52:33;;;;;;;11.90;8.00;;;;;;;6.90;100.00;99301.20;131357;1289;24083;-82
2023/11/20 07:55:34;;;;;;;9.50;7.00;;;;;;;6.93;100.00;99305.70;131342;1289;24244;-83
2023/11/20 07:58:35;;;;;;;13.20;7.20;;;;;;;6.96;100.00;99301.01;132164;1298;23031;-83
2023/11/20 08:01:36;;;;;;;9.30;7.00;;;;;;;7.01;100.00;99306.82;131562;1301;22612;-83
2023/11/20 08:04:36;;;;;;;10.10;7.30;;;;;;;7.03;100.00;99307.11;131475;1282;24284;-81
2023/11/20 08:07:37;;;;;;;10.10;7.10;;;;;;;7.06;100.00;99304.55;131584;1289;22659;-81
2023/11/20 08:10:40;;;;;;;9.00;7.10;;;;;;;7.07;100.00;99303.42;131432;1298;22657;-83
2023/11/20 08:13:40;;;;;;;11.10;7.70;;;;;;;7.07;100.00;99301.09;131444;1290;23210;-81
2023/11/20 08:16:41;;;;;;;10.50;7.50;;;;;;;7.08;100.00;99301.91;131693;1291;22702;-83
2023/11/20 08:19:42;;;;;;;15.70;8.00;;;;;;;7.07;100.00;99295.11;131377;1295;22665;-82
2023/11/20 08:22:42;;;;;;;12.70;8.20;;;;;;;7.07;100.00;99295.52;131583;1298;22579;-83
2023/11/20 08:25:43;;;;;;;;;;;;;;;7.06;100.00;99294.84;131484;1289;23302;-81
2023/11/20 08:28:44;;;;;;;12.00;7.60;;;;;;;7.04;100.00;99289.08;131453;1297;23336;-84
2023/11/20 08:31:47;;;;;;;12.50;8.90;;;;;;;7.04;100.00;99294.05;131451;1289;24550;-81
2023/11/20 08:34:48;;;;;;;12.40;8.20;;;;;;;7.03;100.00;99295.04;131332;1298;22740;-81
2023/11/20 08:37:48;;;;;;;13.20;9.50;;;;;;;7.01;100.00;99292.05;131612;1288;22795;-84
2023/11/20 08:40:50;;;;;;;11.90;9.20;;;;;;;7.01;100.00;99292.77;131547;1288;23372;-80
2023/11/20 08:43:51;;;;;;;10.50;8.30;;;;;;;7.01;100.00;99294.75;131449;1289;22889;-83
2023/11/20 08:46:51;;;;;;;12.40;9.00;;;;;;;7.01;100.00;99296.10;131418;1288;22544;-82
2023/11/20 08:49:53;;;;;;;13.80;8.50;;;;;;;7.01;100.00;99295.27;131227;1298;22576;-81
2023/11/20 08:52:53;;;;;;;11.50;8.40;;;;;;;7.01;100.00;99295.25;131431;1297;22670;-82
2023/11/20 08:55:54;;;;;;;16.20;9.60;;;;;;;7.01;100.00;99299.65;131381;1289;22563;-81
2023/11/20 08:58:54;;;;;;;14.20;8.90;;;;;;;7.00;100.00;99298.51;131458;1295;29055;-81
2023/11/20 09:01:56;;;;;;;12.20;9.30;;;;;;;6.99;100.00;99301.77;131518;1298;22629;-82
2023/11/20 09:04:57;;;;;;;14.60;8.40;;;;;;;7.00;100.00;99301.73;131748;1289;22605;-82
2023/11/20 09:07:58;;;;;;;13.60;8.30;;;;;;;7.00;100.00;99298.20;131365;1298;23309;-82
2023/11/20 09:10:58;;;;;;;12.40;8.30;;;;;;;6.99;100.00;99296.55;131479;1298;26550;-84
2023/11/20 09:13:59;;;;;;;15.40;8.20;;;;;;;7.00;100.00;99299.63;131565;1288;24027;-83
2023/11/20 09:17:00;;;;;;;11.20;7.90;;;;;;;7.02;100.00;99298.31;131372;1298;22586;-82
2023/11/20 09:20:01;;;;;;;13.40;9.10;;;;;;;7.03;100.00;99295.89;131289;1289;22588;-81
2023/11/20 09:23:02;;;;;;;12.90;8.30;;;;;;;7.04;100.00;99296.86;131464;1298;23134;-82
2023/11/20 09:26:07;;;;;;;13.70;8.50;;;;;;;7.03;100.00;99289.74;131444;1291;22571;-82
2023/11/20 09:29:10;;;;;;;13.50;8.30;;;;;;;7.02;100.00;99287.75;131316;1285;22559;-82
2023/11/20 09:32:10;;;;;;;10.70;7.60;;;;;;;7.01;100.00;99285.36;131317;1298;25395;-82
2023/11/20 09:35:11;;;;;;;;;;;;;;;7.02;100.00;99284.43;131140;1293;22648;-82
2023/11/20 09:38:11;;;;;;;10.90;6.50;;;;;;;7.04;100.00;99279.61;131447;1281;22609;-86
2023/11/20 09:41:12;;;;;;;9.30;6.50;;;;;;;7.08;100.00;99283.02;131330;1289;22594;-80
2023/11/20 09:44:13;;;;;;;10.20;6.70;;;;;;;7.15;100.00;99278.46;131124;1291;23391;-85
2023/11/20 09:47:14;;;;;;;10.10;6.50;;;;;;;7.21;100.00;99277.40;131297;1298;22562;-83
2023/11/20 09:50:15;;;;;;;7.40;5.50;;;;;;;7.27;100.00;99275.27;131196;1289;23316;-82
2023/11/20 09:53:15;;;;;;;8.80;5.50;;;;;;;7.30;100.00;99265.02;131189;1288;23930;-81
2023/11/20 09:56:16;;;;;;;;;;;;;;;7.34;100.00;99264.27;131314;1289;25300;-83
2023/11/20 09:59:16;;;;;;;7.50;4.80;;;;;;;7.37;100.00;99256.31;131161;1295;24266;-83
2023/11/20 10:02:18;;;;;;;6.90;5.30;;;;;;;7.43;100.00;99251.45;131371;1288;23468;-82
2023/11/20 10:05:30;;;;;;;8.00;5.60;;;;;;;7.49;100.00;99249.63;131487;1298;23272;-82
2023/11/20 10:08:35;;;;;;;7.20;5.10;;;;;;;7.55;100.00;99240.35;131479;1297;22643;-82
2023/11/20 10:11:40;;;;;;;13.10;5.50;;;;;;;7.60;100.00;99243.41;131487;1291;25443;-80
2023/11/20 10:14:41;;;;;;;10.50;6.30;;;;;;;7.65;100.00;99235.30;131516;1291;25310;-82
2023/11/20 10:17:41;;;;;;;10.00;7.40;;;;;;;7.68;100.00;99233.42;131452;1288;22583;-80
2023/11/20 10:20:47;;;;;;;10.60;6.40;;;;;;;7.73;100.00;99231.89;131618;1298;25509;-82
2023/11/20 10:23:57;;;;;;;8.20;5.20;;;;;;;7.75;100.00;99227.03;131678;1297;22672;-81
2023/11/20 10:26:57;;;;;;;8.50;4.60;;;;;;;7.77;100.00;99228.20;131620;1288;23307;-83
2023/11/20 10:29:58;;;;;;;7.40;4.90;;;;;;;7.77;100.00;99226.42;131542;1297;22565;-81
2023/11/20 10:33:00;;;;;;;6.50;4.60;;;;;;;7.76;100.00;99220.90;131663;1298;22555;-80
2023/11/20 10:36:15;;;;;;;9.60;5.40;;;;;;;7.76;100.00;99216.06;131616;1304;25376;-80
2023/11/20 10:39:17;;;;;;;7.80;5.10;;;;;;;7.74;100.00;99216.55;131555;1298;22571;-80
2023/11/20 10:42:17;;;;;;;9.30;5.70;;;;;;;7.73;100.00;99213.73;131446;1289;24287;-81
2023/11/20 10:45:18;;;;;;;10.10;5.40;;;;;;;7.71;100.00;99213.38;131440;1291;25379;-80
2023/11/20 10:48:19;;;;;;;;;;;;;;;7.69;100.00;99208.30;131326;1288;22704;-79
2023/11/20 10:51:23;;;;;;;9.40;4.90;;;;;;;7.69;100.00;99211.90;131201;1291;22661;-82
2023/11/20 10:54:29;;;;;;;9.40;5.00;;;;;;;7.69;100.00;99209.92;131552;1298;23359;-79
2023/11/20 10:57:32;;;;;;;8.90;4.40;;;;;;;7.70;100.00;99216.38;131311;1288;23083;-81
2023/11/20 11:00:34;;;;;;;6.30;4.10;;;;;;;7.69;100.00;99210.28;131464;1294;22749;-82
2023/11/20 11:03:36;;;;;;;6.80;4.20;;;;;;;7.69;100.00;99208.20;131571;1298;22597;-80
2023/11/20 11:06:42;;;;;;;7.10;3.70;;;;;;;7.69;100.00;99210.28;131659;1293;22637;-81
2023/11/20 11:09:44;;;;;;;4.90;3.60;;;;;;;7.70;100.00;99206.33;131591;1291;25517;-79
2023/11/20 11:12:46;;;;;;;4.70;3.60;;;;;;;7.70;100.00;99209.09;131653;1298;22559;-82
2023/11/20 11:15:48;;;;;;;6.20;3.50;;;;;;;7.72;100.00;99196.96;131345;1291;22619;-80
2023/11/20 11:19:00;;;;;;;6.30;3.70;;;;;;;7.74;100.00;99188.12;132173;1298;22594;-82
2023/11/20 11:22:02;;;;;;;6.70;3.60;;;;;;;7.79;100.00;99180.96;131556;1289;23417;-79
2023/11/20 11:25:10;;;;;;;3.20;2.70;;;;;;;7.82;100.00;99182.95;131419;1288;22634;-82
2023/11/20 11:28:14;;;;;;;5.40;4.00;;;;;;;7.82;100.00;99186.23;131531;1289;25593;-80
2023/11/20 11:31:18;;;;;;;4.80;3.50;;;;;;;7.83;100.00;99181.20;131553;1294;22552;-78
2023/11/20 11:34:36;;;;;;;4.60;3.50;;;;;;;7.84;100.00;99177.11;131429;1289;22711;-80
2023/11/20 11:38:02;;;;;;;3.20;2.80;;;;;;;7.85;100.00;99178.52;131480;1289;22578;-80
2023/11/20 11:41:43;;;;;;;6.90;4.20;;;;;;;7.87;100.00;99170.39;131358;1298;24387;-80
2023/11/20 11:44:43;;;;;;;;;;;;;;;7.90;100.00;99166.02;131778;1288;22652;-83
2023/11/20 11:47:47;;;;;;;11.50;6.30;;;;;;;7.91;100.00;99163.06;131397;1297;23476;-81
2023/11/20 11:50:49;;;;;;;9.40;5.40;;;;;;;7.93;100.00;99160.63;131090;1291;22615;-82
2023/11/20 11:54:16;;;;;;;9.60;5.20;;;;;;;7.93;100.00;99156.85;131271;1289;22559;-80
2023/11/20 11:57:26;;;;;;;11.20;5.10;;;;;;;7.95;100.00;99154.30;131239;1291;25441;-81
2023/11/20 12:00:28;;;;;;;8.00;4.80;;;;;;;7.96;100.00;99148.95;131338;1291;24437;-79
2023/11/20 12:03:35;;;;;;;9.90;5.50;;;;;;;7.99;100.00;99144.41;131376;1291;22570;-80
2023/11/20 12:06:36;;;;;;;8.80;5.20;;;;;;;8.02;100.00;99145.13;131568;1298;25375;-80
2023/11/20 12:09:56;;;;;;;7.10;4.70;;;;;;;8.08;100.00;99145.25;131439;1298;22563;-80
2023/11/20 12:13:03;;;;;;;7.00;4.70;;;;;;;8.16;100.00;99144.77;131196;1291;25332;-79
2023/11/20 12:16:07;;;;;;;6.90;4.70;;;;;;;8.21;100.00;99145.11;131305;1294;24270;-80
2023/11/20 12:19:10;;;;;;;6.70;3.90;;;;;;;8.25;100.00;99146.20;131319;1291;24478;-80
2023/11/20 12:22:11;;;;;;;6.70;4.10;;;;;;;8.29;100.00;99140.42;131286;1298;22663;-80
2023/11/20 12:25:12;;;;;;;5.80;4.40;;;;;;;8.33;100.00;99142.25;134153;1298;22270;-81
2023/11/20 12:28:13;;;;;;;6.30;5.00;;;;;;;8.34;100.00;99137.92;131514;1297;24911;-79
2023/11/20 12:31:14;;;;;;;7.60;5.10;;;;;;;8.34;100.00;99137.38;131548;1297;23325;-80
2023/11/20 12:34:14;;;;;;;9.40;6.60;;;;;;;8.33;100.00;99130.29;131512;1298;22652;-82
2023/11/20 12:37:14;;;;;;;9.30;5.70;;;;;;;8.32;100.00;99124.18;131152;1294;22692;-82
2023/11/20 12:40:16;;;;;;;7.10;5.20;;;;;;;8.32;100.00;99129.66;131390;1300;24782;-79
2023/11/20 12:43:21;;;;;;;7.00;5.10;;;;;;;8.33;100.00;99127.29;131418;1289;22582;-81
2023/11/20 12:46:22;;;;;;;11.70;4.90;;;;;;;8.35;100.00;99120.96;131454;1289;22559;-84
2023/11/20 12:49:22;;;;;;;6.10;4.80;;;;;;;8.35;100.00;99123.16;131540;1288;22699;-80
2023/11/20 12:52:23;;;;;;;8.00;6.00;;;;;;;8.36;100.00;99121.68;131535;1291;22727;-80
2023/11/20 12:55:25;;;;;;;7.90;5.70;;;;;;;8.38;100.00;99123.89;131426;1288;22578;-81
2023/11/20 12:58:27;;;;;;;9.00;5.80;;;;;;;8.39;100.00;99124.34;131433;1296;25310;-81
2023/11/20 13:01:28;;;;;;;8.00;5.80;;;;;;;8.42;100.00;99120.67;131534;1298;22594;-80
2023/11/20 13:04:34;;;;;;;7.70;5.50;;;;;;;8.44;100.00;99120.55;131748;1296;22600;-80
2023/11/20 13:07:34;;;;;;;7.30;4.20;;;;;;;8.47;100.00;99118.84;131656;1298;24228;-79
2023/11/20 13:10:35;;;;;;;7.80;3.90;;;;;;;8.50;100.00;99120.77;131718;1289;22594;-82
2023/11/20 13:13:37;;;;;;;9.40;4.70;;;;;;;8.52;100.00;99122.67;131757;1298;22629;-82
2023/11/20 13:16:37;;;;;;;8.80;4.20;;;;;;;8.53;100.00;99117.95;131584;1292;24473;-81
2023/11/20 13:19:39;;;;;;;5.50;3.50;;;;;;;8.55;100.00;99118.94;131204;1288;22559;-80
2023/11/20 13:22:43;;;;;;;5.70;3.40;;;;;;;8.60;100.00;99123.02;131505;1282;23372;-80
2023/11/20 13:25:45;;;;;;;6.20;4.00;;;;;;;8.64;100.00;99120.71;131627;1295;22572;-81
2023/11/20 13:28:48;;;;;;;7.30;5.00;;;;;;;8.67;100.00;99118.16;131255;1289;22605;-79
2023/11/20 13:31:48;;;;;;;7.40;4.90;;;;;;;8.69;100.00;99117.86;131396;1291;24267;-80
2023/11/20 13:34:49;;;;;;;5.10;3.50;;;;;;;8.71;100.00;99115.05;131202;1299;22622;-79
2023/11/20 13:37:55;;;;;;;5.00;4.10;;;;;;;8.73;100.00;99116.39;131459;1293;23901;-81
2023/11/20 13:40:56;;;;;;;4.70;3.50;;;;;;;8.74;100.00;99112.66;131400;1301;22583;-81
2023/11/20 13:43:56;;;;;;;6.80;3.80;;;;;;;8.77;100.00;99113.92;131705;1298;22563;-81
2023/11/20 13:46:58;;;;;;;5.30;3.80;;;;;;;8.79;100.00;99115.27;131591;1298;22601;-81
2023/11/20 13:49:59;;;;;;;4.80;3.60;;;;;;;8.81;100.00;99118.02;131287;1291;22587;-81
2023/11/20 13:53:04;;;;;;;4.80;3.40;;;;;;;8.83;100.00;99116.29;131301;1291;22569;-81
2023/11/20 13:56:05;;;;;;;6.90;3.80;;;;;;;8.84;100.00;99116.31;131285;1289;22563;-79
2023/11/20 13:59:08;;;;;;;11.20;4.10;;;;;;;8.84;100.00;99119.83;131146;1292;22680;-79
2023/11/20 14:02:09;;;;;;;4.60;3.70;;;;;;;8.84;100.00;99119.98;131256;1288;23938;-81